Weather at Taiwan Taoyuan International Airport

Public forecast

Using degrees Celsius for public forecast. Weather courtesy of forecast.io.

Current aviation weather report (METAR) for Taiwan Taoyuan International Airport

2022/12/01 23:00 (retrieved 22 minutes ago)

RCTP 012300Z 05021KT 9999 -RA FEW006 BKN008 BKN018 17/16 Q1021 NOSIG RMK A3015 RA AMT 04MM

Aviation forecast (TAF) for Taiwan Taoyuan International Airport

2022/12/01 18:00 (retrieved 5 hours ago)

TAF VMMC 011700Z 0118/0224 36020KT 9999 FEW015 SCT025 TAF RCTP 011700Z 0118/0224 04020KT 8000 SCT006 BKN011 BKN020 TEMPO 0118/0124 SCT005 BKN007 BKN020 TEMPO 0209/0215 05015KT SCT010 BKN022 BECMG 0215/0217 05015KT TEMPO 0218/0224 SCT004 BKN006 BKN020